Time;durP1;ratioP1;P1;durP2;ratioP2;P2;SDS_P1;SDS_P2;PMS_P1;PMS_P2;Temp;Humidity;BMP_temperature;BMP_pressure;BME280_temperature;BME280_humidity;BME280_pressure;Samples;Min_cycle;Max_cycle;Signal;HPM_P1;HPM_P2
2022/03/02 00:00:15;;;;;;;29.75;20.08;;;5.50;99.90;;;;;;2097884;68;20183;-71
2022/03/02 00:02:57;;;;;;;33.53;21.77;;;5.60;99.90;;;;;;2104784;68;20207;-72
2022/03/02 00:05:39;;;;;;;34.13;21.45;;;5.60;99.90;;;;;;2090879;68;20743;-71
2022/03/02 00:08:22;;;;;;;30.40;20.23;;;5.60;99.90;;;;;;2090570;68;20363;-71
2022/03/02 00:11:06;;;;;;;;;;;5.60;99.90;;;;;;2085587;68;20325;-72
2022/03/02 00:13:49;;;;;;;32.28;20.17;;;5.80;99.90;;;;;;2090674;68;20200;-70
2022/03/02 00:16:32;;;;;;;34.65;21.20;;;5.60;99.90;;;;;;2093513;68;20814;-70
2022/03/02 00:19:21;;;;;;;31.95;21.63;;;5.60;99.90;;;;;;2095435;68;20175;-70
2022/03/02 00:22:04;;;;;;;33.80;21.25;;;5.60;99.90;;;;;;2089811;68;20364;-71
2022/03/02 00:24:50;;;;;;;32.85;21.15;;;5.60;99.90;;;;;;2095563;68;20689;-72
2022/03/02 00:27:32;;;;;;;30.38;20.55;;;5.60;99.90;;;;;;2090724;68;20217;-70
2022/03/02 00:30:16;;;;;;;33.83;22.55;;;5.60;99.90;;;;;;2084276;68;20606;-71
2022/03/02 00:33:01;;;;;;;36.85;22.55;;;5.60;99.90;;;;;;2104690;68;20307;-70
2022/03/02 00:35:49;;;;;;;34.00;22.35;;;5.60;99.90;;;;;;2107023;67;20254;-74
2022/03/02 00:38:30;;;;;;;36.85;21.38;;;5.50;99.90;;;;;;2119047;67;20285;-72
2022/03/02 00:41:13;;;;;;;32.22;20.95;;;5.50;99.90;;;;;;2132280;67;20311;-71
2022/03/02 00:43:57;;;;;;;33.53;21.80;;;5.50;99.90;;;;;;2139539;67;20702;-69
2022/03/02 00:46:41;;;;;;;35.20;22.23;;;5.50;99.90;;;;;;2131211;67;20267;-70
2022/03/02 00:49:26;;;;;;;33.83;21.70;;;5.50;99.90;;;;;;2131947;67;20323;-72
2022/03/02 00:52:10;;;;;;;32.10;21.48;;;5.50;99.90;;;;;;2114693;67;20243;-72
2022/03/02 00:54:55;;;;;;;39.95;22.80;;;5.50;99.90;;;;;;2130997;67;20254;-71
2022/03/02 00:57:44;;;;;;;28.85;20.60;;;5.50;99.90;;;;;;2131492;67;20313;-71
2022/03/02 01:00:28;;;;;;;;;;;5.50;99.90;;;;;;2124447;67;20391;-71
2022/03/02 01:03:11;;;;;;;31.35;21.13;;;5.40;99.90;;;;;;2131860;67;20127;-70
2022/03/02 01:06:01;;;;;;;36.30;23.52;;;5.40;99.90;;;;;;2111955;67;20733;-72
2022/03/02 01:08:45;;;;;;;36.35;22.58;;;5.40;99.90;;;;;;2117350;67;20860;-71
2022/03/02 01:11:27;;;;;;;36.20;22.67;;;5.40;99.90;;;;;;2095371;68;20706;-70
2022/03/02 01:14:08;;;;;;;35.28;22.48;;;5.40;99.90;;;;;;2111391;67;20262;-69
2022/03/02 01:16:50;;;;;;;33.90;22.38;;;5.30;99.90;;;;;;2107005;67;20181;-70
2022/03/02 01:19:32;;;;;;;34.75;22.00;;;5.30;99.90;;;;;;2112145;67;20417;-71
2022/03/02 01:22:14;;;;;;;30.90;21.02;;;5.50;99.90;;;;;;2114248;67;20414;-71
2022/03/02 01:25:00;;;;;;;34.70;22.52;;;5.20;99.90;;;;;;2098660;67;20200;-70
2022/03/02 01:27:44;;;;;;;37.05;23.50;;;5.30;99.90;;;;;;2099469;67;20234;-70
2022/03/02 01:30:27;;;;;;;36.75;23.00;;;5.20;99.90;;;;;;2100400;68;20187;-70
2022/03/02 01:33:08;;;;;;;34.00;22.40;;;5.20;99.90;;;;;;2084223;68;20321;-70
2022/03/02 01:35:50;;;;;;;35.75;23.60;;;5.20;99.90;;;;;;2090686;68;20903;-70
2022/03/02 01:38:44;;;;;;;36.30;23.70;;;5.30;99.90;;;;;;2090594;68;20187;-72
2022/03/02 01:42:07;;;;;;;36.45;22.58;;;5.20;99.90;;;;;;2083288;68;20395;-71
2022/03/02 01:44:49;;;;;;;36.63;23.33;;;5.20;99.90;;;;;;2077277;68;20188;-71
2022/03/02 01:47:33;;;;;;;37.10;25.23;;;5.10;99.90;;;;;;2088034;68;20364;-70
2022/03/02 01:50:19;;;;;;;36.30;23.02;;;5.10;99.90;;;;;;2104073;68;20264;-70
2022/03/02 01:53:04;;;;;;;36.33;24.17;;;5.20;99.90;;;;;;2111205;67;20282;-69
2022/03/02 01:55:46;;;;;;;36.80;23.88;;;5.10;99.90;;;;;;2116855;67;20234;-71
2022/03/02 01:58:28;;;;;;;36.35;24.02;;;5.10;99.90;;;;;;2122826;67;20356;-70
2022/03/02 02:01:12;;;;;;;37.72;23.58;;;5.10;99.90;;;;;;2120726;67;20728;-72
2022/03/02 02:04:29;;;;;;;;;;;;;;;;;;;;;
2022/03/02 02:08:03;;;;;;;38.90;23.55;;;5.00;99.90;;;;;;2116352;67;20289;-72
2022/03/02 02:11:15;;;;;;;41.28;24.77;;;4.50;99.90;;;;;;2140282;66;20195;-74
2022/03/02 02:14:45;;;;;;;39.75;25.10;;;4.90;99.90;;;;;;2137436;66;20170;-71
2022/03/02 02:17:37;;;;;;;40.20;24.98;;;4.80;99.90;;;;;;2117903;67;20204;-71
2022/03/02 02:20:18;;;;;;;41.25;23.73;;;4.70;99.90;;;;;;2132817;67;20236;-70
2022/03/02 02:23:01;;;;;;;41.38;25.05;;;4.60;99.90;;;;;;2125298;67;20260;-70
2022/03/02 02:25:46;;;;;;;39.40;25.30;;;4.60;99.90;;;;;;2117964;67;20318;-71
2022/03/02 02:28:30;;;;;;;42.40;24.33;;;4.60;99.90;;;;;;2110065;67;20293;-71
2022/03/02 02:31:15;;;;;;;43.28;27.10;;;4.50;99.90;;;;;;2096613;68;20340;-70
2022/03/02 02:33:57;;;;;;;;;;;4.40;99.90;;;;;;2098168;67;20370;-70
2022/03/02 02:37:10;;;;;;;45.55;25.30;;;4.30;99.90;;;;;;2090284;68;20627;-75
2022/03/02 02:40:20;;;;;;;42.15;25.25;;;5.30;99.90;;;;;;2103727;68;20257;-73
2022/03/02 02:43:02;;;;;;;40.92;26.88;;;4.10;99.90;;;;;;2097026;68;20377;-71
2022/03/02 02:45:43;;;;;;;46.00;26.80;;;4.10;99.90;;;;;;2076381;68;20259;-71
2022/03/02 02:48:26;;;;;;;45.00;28.10;;;3.90;99.90;;;;;;2079005;68;20273;-70
2022/03/02 02:51:10;;;;;;;50.45;29.60;;;3.80;99.90;;;;;;2069755;69;20177;-70
2022/03/02 02:53:53;;;;;;;50.83;30.02;;;3.80;99.90;;;;;;2087346;68;20277;-70
2022/03/02 02:56:37;;;;;;;45.50;29.48;;;3.70;99.90;;;;;;2095539;68;20246;-70
2022/03/02 02:59:20;;;;;;;48.60;30.00;;;3.60;99.90;;;;;;2095594;68;20854;-70
2022/03/02 03:02:02;;;;;;;44.45;27.17;;;3.60;99.90;;;;;;2082265;68;20434;-70
2022/03/02 03:04:45;;;;;;;48.13;28.45;;;3.50;99.90;;;;;;2069494;69;20193;-70
2022/03/02 03:07:27;;;;;;;52.63;28.60;;;3.40;99.90;;;;;;2076349;69;20188;-70
2022/03/02 03:10:10;;;;;;;50.17;29.48;;;3.30;99.90;;;;;;2079589;68;20681;-70
2022/03/02 03:12:52;;;;;;;50.95;29.40;;;3.30;99.90;;;;;;2089807;68;20401;-70
2022/03/02 03:15:38;;;;;;;53.47;30.55;;;3.30;99.90;;;;;;2097682;67;20203;-71
2022/03/02 03:18:25;;;;;;;;;;;3.20;99.90;;;;;;2125366;67;20318;-71
2022/03/02 03:21:08;;;;;;;50.75;30.75;;;3.10;99.90;;;;;;2132706;67;20055;-69
2022/03/02 03:23:52;;;;;;;;;;;3.10;99.90;;;;;;2119254;67;20797;-70
2022/03/02 03:26:34;;;;;;;47.13;27.90;;;3.10;99.90;;;;;;2132963;67;20068;-69
2022/03/02 03:29:17;;;;;;;51.45;29.73;;;3.00;99.90;;;;;;2133271;67;20252;-69
2022/03/02 03:32:02;;;;;;;51.65;31.25;;;3.00;99.90;;;;;;2126287;67;20701;-71
2022/03/02 03:34:46;;;;;;;50.70;29.15;;;3.00;99.90;;;;;;2120439;67;20217;-72
2022/03/02 03:37:28;;;;;;;51.10;29.70;;;2.90;99.90;;;;;;2133146;67;20168;-71
2022/03/02 03:40:12;;;;;;;56.03;30.73;;;2.90;99.90;;;;;;2119875;67;20213;-71
2022/03/02 03:42:58;;;;;;;53.25;30.33;;;2.80;99.90;;;;;;2118818;67;20337;-70
2022/03/02 03:45:43;;;;;;;52.15;31.05;;;2.80;99.90;;;;;;2120076;67;20854;-70
2022/03/02 03:48:24;;;;;;;52.60;31.15;;;2.80;99.90;;;;;;2098021;68;20265;-69
2022/03/02 03:51:08;;;;;;;50.50;28.00;;;2.70;99.90;;;;;;2104811;68;20385;-71
2022/03/02 03:53:51;;;;;;;;;;;2.70;99.90;;;;;;2110424;67;20203;-70
2022/03/02 03:56:36;;;;;;;50.97;28.77;;;2.70;99.90;;;;;;2105778;67;20076;-70
2022/03/02 03:59:18;;;;;;;49.72;29.95;;;2.60;99.90;;;;;;2121633;67;20204;-70
2022/03/02 04:02:01;;;;;;;53.15;30.13;;;2.60;99.90;;;;;;2122467;67;20331;-70
2022/03/02 04:04:43;;;;;;;41.97;27.63;;;2.60;99.90;;;;;;2126597;67;20173;-70
2022/03/02 04:07:25;;;;;;;48.97;29.70;;;2.60;99.90;;;;;;2112477;67;20193;-71
2022/03/02 04:10:07;;;;;;;46.97;29.75;;;2.60;99.90;;;;;;2118946;67;20369;-71
2022/03/02 04:12:49;;;;;;;47.08;29.90;;;2.60;99.90;;;;;;2118267;67;20431;-70
2022/03/02 04:15:32;;;;;;;51.05;29.77;;;2.50;99.90;;;;;;2111682;67;20432;-70
2022/03/02 04:18:17;;;;;;;47.88;28.38;;;2.50;99.90;;;;;;2111491;67;20181;-70
2022/03/02 04:21:00;;;;;;;47.30;29.50;;;2.50;99.90;;;;;;2118741;67;20833;-71
2022/03/02 04:23:43;;;;;;;46.50;28.52;;;2.60;99.90;;;;;;2117739;67;20424;-71
2022/03/02 04:26:26;;;;;;;53.85;30.67;;;2.50;99.90;;;;;;2118848;67;20559;-69
2022/03/02 04:29:10;;;;;;;;;;;2.50;99.90;;;;;;2119047;67;20841;-70
2022/03/02 04:31:52;;;;;;;51.65;28.88;;;2.50;99.90;;;;;;2111219;67;20121;-70
2022/03/02 04:34:35;;;;;;;47.70;29.90;;;2.40;99.90;;;;;;2114243;67;20244;-72
2022/03/02 04:37:22;;;;;;;49.50;28.83;;;2.40;99.90;;;;;;2111562;67;20278;-69
2022/03/02 04:40:09;;;;;;;50.78;29.38;;;2.40;99.90;;;;;;2118066;67;20275;-70
2022/03/02 04:42:54;;;;;;;49.40;29.40;;;2.30;99.90;;;;;;2126227;67;20338;-71
2022/03/02 04:45:51;;;;;;;53.72;31.20;;;2.30;99.90;;;;;;2139119;67;20222;-73
2022/03/02 04:48:33;;;;;;;49.97;28.77;;;2.30;99.90;;;;;;2125024;67;20808;-70
2022/03/02 04:51:14;;;;;;;44.92;28.75;;;2.30;99.90;;;;;;2128809;66;20233;-70
2022/03/02 04:53:57;;;;;;;52.35;30.13;;;2.20;99.90;;;;;;2143949;66;20330;-71
2022/03/02 04:56:41;;;;;;;51.38;29.85;;;2.20;99.90;;;;;;2130560;67;20398;-70
2022/03/02 04:59:24;;;;;;;48.92;29.33;;;2.20;99.90;;;;;;2110577;67;20840;-71
2022/03/02 05:02:06;;;;;;;48.55;27.90;;;2.20;99.90;;;;;;2105414;67;20194;-71
2022/03/02 05:04:49;;;;;;;47.50;29.83;;;2.10;99.90;;;;;;2110655;67;20260;-71
2022/03/02 05:11:57;;;;;;;48.55;30.65;;;2.10;99.90;;;;;;2076014;69;20327;-71
2022/03/02 05:14:51;;;;;;;50.22;29.75;;;2.80;99.90;;;;;;2060450;69;20369;-73
2022/03/02 05:18:05;;;;;;;52.45;30.38;;;2.00;99.90;;;;;;2066254;69;20276;-71
2022/03/02 05:20:56;;;;;;;56.67;31.15;;;1.60;99.90;;;;;;2076623;69;21118;-70
2022/03/02 05:24:03;;;;;;;54.40;30.45;;;2.70;99.90;;;;;;2083284;68;20350;-71
2022/03/02 05:27:24;;;;;;;55.58;30.77;;;1.90;99.90;;;;;;2079242;68;20196;-71
2022/03/02 05:30:31;;;;;;;51.05;30.77;;;1.90;99.90;;;;;;2090729;68;20350;-71
2022/03/02 05:33:54;;;;;;;53.22;31.45;;;1.80;99.90;;;;;;2092726;68;21006;-72
2022/03/02 05:43:44;;;;;;;53.63;31.55;;;1.70;99.90;;;;;;2103965;67;20258;-70
2022/03/02 05:46:49;;;;;;;55.67;31.85;;;1.70;99.90;;;;;;2078775;68;20355;-69
2022/03/02 05:50:11;;;;;;;47.42;29.42;;;1.60;99.90;;;;;;2076484;69;20254;-71
2022/03/02 05:53:13;;;;;;;56.30;30.80;;;1.60;99.90;;;;;;2076170;68;20645;-70
2022/03/02 05:56:10;;;;;;;51.17;30.42;;;1.60;99.90;;;;;;2080143;68;20462;-73
2022/03/02 05:58:52;;;;;;;53.75;32.45;;;1.70;99.90;;;;;;2089729;68;20393;-70
2022/03/02 06:01:41;;;;;;;55.28;31.63;;;1.50;99.90;;;;;;2094650;68;20191;-72
2022/03/02 06:04:26;;;;;;;54.05;30.95;;;1.50;99.90;;;;;;2106325;67;20182;-72
2022/03/02 06:07:27;;;;;;;;;;;;;;;;;;;;;
2022/03/02 06:10:07;;;;;;;52.33;31.48;;;1.40;99.90;;;;;;2104275;67;20198;-73
2022/03/02 06:12:49;;;;;;;55.42;31.50;;;1.40;99.90;;;;;;2098627;67;20187;-70
2022/03/02 06:15:32;;;;;;;51.90;31.13;;;1.40;99.90;;;;;;2110846;67;20181;-70
2022/03/02 06:18:14;;;;;;;57.40;32.70;;;1.40;99.90;;;;;;2119422;67;20189;-70
2022/03/02 06:21:01;;;;;;;53.58;30.10;;;1.30;99.90;;;;;;2122618;67;20274;-70
2022/03/02 06:23:47;;;;;;;52.72;30.77;;;1.40;99.90;;;;;;2116403;67;20454;-71
2022/03/02 06:26:29;;;;;;;;;;;1.30;99.90;;;;;;2118146;67;20844;-70
2022/03/02 06:33:18;;;;;;;54.90;31.77;;;1.30;99.90;;;;;;2070061;69;20261;-71
2022/03/02 06:36:00;;;;;;;50.80;30.85;;;1.60;99.90;;;;;;2087612;68;20338;-71
2022/03/02 06:38:43;;;;;;;56.33;31.55;;;1.30;99.90;;;;;;2099586;68;20374;-68
2022/03/02 06:41:36;;;;;;;52.15;31.52;;;1.30;99.90;;;;;;2097588;68;20279;-70
2022/03/02 06:44:40;;;;;;;51.92;30.80;;;1.30;99.90;;;;;;2097734;68;20364;-69
2022/03/02 06:47:31;;;;;;;51.33;30.25;;;1.30;99.90;;;;;;2084850;68;20180;-69
2022/03/02 06:50:14;;;;;;;52.15;31.25;;;1.30;99.90;;;;;;2084229;68;20350;-70
2022/03/02 06:53:00;;;;;;;54.67;30.95;;;1.30;99.90;;;;;;2074398;69;20173;-71
2022/03/02 06:55:43;;;;;;;52.20;30.40;;;1.30;99.90;;;;;;2077021;68;20794;-70
2022/03/02 06:58:28;;;;;;;50.00;31.77;;;1.30;99.90;;;;;;2071720;68;20194;-69
2022/03/02 07:01:13;;;;;;;50.33;30.20;;;1.40;99.90;;;;;;2069632;69;20260;-70
2022/03/02 07:03:58;;;;;;;51.15;29.88;;;1.40;99.90;;;;;;2068294;69;20672;-70
2022/03/02 07:06:42;;;;;;;46.92;29.63;;;1.50;99.90;;;;;;2054593;69;20703;-70
2022/03/02 07:09:23;;;;;;;50.67;29.55;;;1.40;99.90;;;;;;2073930;68;20404;-70
2022/03/02 07:12:08;;;;;;;57.72;29.77;;;1.50;99.90;;;;;;2090782;68;20179;-70
2022/03/02 07:14:51;;;;;;;48.53;29.50;;;1.50;99.90;;;;;;2085405;68;20236;-70
2022/03/02 07:17:33;;;;;;;49.22;29.98;;;1.50;99.90;;;;;;2076166;69;20189;-69
2022/03/02 07:20:15;;;;;;;49.67;30.98;;;1.60;99.90;;;;;;2080954;68;20324;-71
2022/03/02 07:22:59;;;;;;;54.05;31.58;;;1.60;99.90;;;;;;2086184;68;20260;-71
2022/03/02 07:25:47;;;;;;;50.85;30.52;;;1.70;99.90;;;;;;2070216;69;20244;-73
2022/03/02 07:28:27;;;;;;;52.45;28.55;;;1.70;99.90;;;;;;2060303;69;20212;-70
2022/03/02 07:31:09;;;;;;;53.40;29.58;;;1.80;99.90;;;;;;2074419;69;20196;-70
2022/03/02 07:33:53;;;;;;;49.67;29.48;;;1.80;99.90;;;;;;2062260;69;20311;-71
2022/03/02 07:36:36;;;;;;;50.05;28.35;;;2.10;99.90;;;;;;2070737;68;20740;-70
2022/03/02 07:39:37;;;;;;;51.22;29.90;;;1.90;99.90;;;;;;2075112;68;20492;-71
2022/03/02 07:42:45;;;;;;;49.53;31.25;;;2.00;99.90;;;;;;2078636;68;20325;-70
2022/03/02 07:45:36;;;;;;;47.05;28.10;;;2.10;99.90;;;;;;2071096;69;20200;-73
2022/03/02 07:48:37;;;;;;;47.20;29.02;;;2.20;99.90;;;;;;2073540;68;20415;-70
2022/03/02 07:51:36;;;;;;;49.15;29.48;;;2.30;99.90;;;;;;2065199;69;20186;-72
2022/03/02 07:54:26;;;;;;;46.08;28.73;;;2.30;99.90;;;;;;2066823;69;20186;-71
2022/03/02 07:57:21;;;;;;;48.00;27.73;;;2.40;99.90;;;;;;2076339;68;20492;-71
2022/03/02 08:00:30;;;;;;;44.65;28.08;;;2.40;99.90;;;;;;2072576;68;20255;-71
2022/03/02 08:03:27;;;;;;;47.83;28.77;;;2.50;99.90;;;;;;2081399;68;20531;-70
2022/03/02 08:06:33;;;;;;;49.42;28.48;;;2.60;99.90;;;;;;2081611;68;20198;-71
2022/03/02 08:09:17;;;;;;;47.05;28.45;;;2.60;99.90;;;;;;2110789;67;20378;-71
2022/03/02 08:12:08;;;;;;;49.38;27.48;;;2.70;99.90;;;;;;2104580;67;20226;-69
2022/03/02 08:14:50;;;;;;;45.47;26.75;;;2.70;99.90;;;;;;2110419;67;20161;-72
2022/03/02 08:17:39;;;;;;;52.65;28.85;;;2.80;99.90;;;;;;2117032;67;20815;-72
2022/03/02 08:20:26;;;;;;;;;;;2.90;99.90;;;;;;2104422;67;20901;-71
2022/03/02 08:23:22;;;;;;;46.85;26.98;;;2.90;99.90;;;;;;2129032;67;20156;-71
2022/03/02 08:26:07;;;;;;;48.70;28.10;;;2.90;99.90;;;;;;2105628;67;20258;-70
2022/03/02 08:29:14;;;;;;;39.97;26.83;;;3.30;99.90;;;;;;2109184;67;20236;-71
2022/03/02 08:32:06;;;;;;;46.25;28.75;;;3.10;99.90;;;;;;2098835;68;20340;-70
2022/03/02 08:34:49;;;;;;;41.97;25.42;;;3.20;99.90;;;;;;2101625;67;20483;-71
2022/03/02 08:37:32;;;;;;;46.22;27.35;;;3.60;99.90;;;;;;2090243;68;20431;-70
2022/03/02 08:40:14;;;;;;;44.40;26.65;;;4.10;99.90;;;;;;2076209;68;20754;-70
2022/03/02 08:43:01;;;;;;;43.65;26.20;;;3.50;99.90;;;;;;2069821;69;20390;-70
2022/03/02 08:45:51;;;;;;;46.38;25.95;;;3.60;99.90;;;;;;2071734;68;20221;-71
2022/03/02 08:48:34;;;;;;;46.85;26.30;;;3.70;99.90;;;;;;2085563;68;20176;-70
2022/03/02 08:51:23;;;;;;;40.95;25.33;;;3.80;99.90;;;;;;2098295;68;20408;-71
2022/03/02 08:54:12;;;;;;;38.35;25.02;;;3.90;99.90;;;;;;2101859;68;20388;-72
2022/03/02 08:56:55;;;;;;;48.58;25.50;;;3.90;99.90;;;;;;2093395;68;20202;-71
2022/03/02 08:59:40;;;;;;;34.97;22.88;;;4.10;99.90;;;;;;2090138;68;20265;-70
2022/03/02 09:02:29;;;;;;;38.15;23.38;;;4.00;99.90;;;;;;2087009;68;20364;-70
2022/03/02 09:05:11;;;;;;;37.08;23.40;;;4.20;99.90;;;;;;2088966;68;20250;-70
2022/03/02 09:07:53;;;;;;;37.42;24.60;;;4.30;99.90;;;;;;2084814;68;20724;-70
2022/03/02 09:10:37;;;;;;;38.17;24.63;;;4.40;99.90;;;;;;2098335;67;20323;-70
2022/03/02 09:13:20;;;;;;;38.97;23.95;;;4.50;99.90;;;;;;2091680;68;20306;-71
2022/03/02 09:16:02;;;;;;;39.00;23.40;;;4.50;99.90;;;;;;2090773;68;20202;-71
2022/03/02 09:18:44;;;;;;;41.35;24.58;;;4.60;99.90;;;;;;2092833;67;20340;-71
2022/03/02 09:21:27;;;;;;;39.65;24.83;;;4.70;99.90;;;;;;2089471;68;20325;-70
2022/03/02 09:24:10;;;;;;;38.70;24.77;;;4.70;99.90;;;;;;2083436;68;20184;-72
2022/03/02 09:26:53;;;;;;;41.05;23.08;;;4.70;99.90;;;;;;2081929;68;20251;-71
2022/03/02 09:29:38;;;;;;;37.53;22.77;;;4.80;99.90;;;;;;2090551;68;20250;-70
2022/03/02 09:32:22;;;;;;;38.38;24.05;;;4.90;99.90;;;;;;2083535;68;20208;-72
2022/03/02 09:35:24;;;;;;;37.92;24.80;;;4.90;99.90;;;;;;2069760;69;20739;-71
2022/03/02 09:38:10;;;;;;;34.90;22.88;;;5.00;99.90;;;;;;2080467;68;20257;-70
2022/03/02 09:40:58;;;;;;;39.72;23.05;;;5.00;99.90;;;;;;2080862;68;20936;-71
2022/03/02 09:43:50;;;;;;;36.72;22.85;;;5.10;99.90;;;;;;2059896;69;20330;-70
2022/03/02 09:46:37;;;;;;;34.70;22.73;;;5.20;99.90;;;;;;2075230;68;20437;-71
2022/03/02 09:49:22;;;;;;;38.65;23.88;;;5.30;99.90;;;;;;2104002;67;20285;-71
2022/03/02 09:52:09;;;;;;;37.88;24.60;;;5.40;99.90;;;;;;2092497;68;20661;-70
2022/03/02 09:54:58;;;;;;;32.00;19.95;;;5.50;99.90;;;;;;2093677;68;20284;-70
2022/03/02 09:57:49;;;;;;;37.70;24.35;;;5.60;99.90;;;;;;2078845;68;20556;-70
2022/03/02 10:00:31;;;;;;;36.95;23.30;;;5.60;99.90;;;;;;2082931;68;20231;-70
2022/03/02 10:03:23;;;;;;;32.05;21.92;;;5.70;99.90;;;;;;2075597;68;20381;-70
2022/03/02 10:06:06;;;;;;;33.85;22.05;;;5.80;99.90;;;;;;2073867;68;20177;-72
2022/03/02 10:08:51;;;;;;;30.08;19.30;;;5.90;99.90;;;;;;2080362;68;20325;-71
2022/03/02 10:11:41;;;;;;;28.10;18.20;;;5.90;99.90;;;;;;2107109;67;20490;-71
2022/03/02 10:14:23;;;;;;;33.88;22.15;;;6.00;99.90;;;;;;2123562;67;20202;-71
2022/03/02 10:17:07;;;;;;;33.60;20.25;;;6.10;99.90;;;;;;2110149;67;20701;-72
2022/03/02 10:19:57;;;;;;;34.10;22.92;;;6.20;99.90;;;;;;2110657;67;20253;-71
2022/03/02 10:22:41;;;;;;;30.92;21.20;;;6.20;99.90;;;;;;2107254;67;20178;-71
2022/03/02 10:25:41;;;;;;;33.20;20.85;;;6.30;99.90;;;;;;2105928;67;20217;-70
2022/03/02 10:28:31;;;;;;;34.50;20.95;;;6.40;99.90;;;;;;2109443;67;20767;-70
2022/03/02 10:31:41;;;;;;;32.67;20.80;;;6.50;99.90;;;;;;2100263;68;20733;-71
2022/03/02 10:34:26;;;;;;;35.33;22.25;;;6.60;99.90;;;;;;2102176;67;20194;-71
2022/03/02 10:37:19;;;;;;;37.90;22.85;;;6.70;99.90;;;;;;2102463;67;20229;-70
2022/03/02 10:40:13;;;;;;;32.30;21.67;;;6.80;99.90;;;;;;2104881;67;20645;-70
2022/03/02 10:43:04;;;;;;;29.38;19.73;;;6.90;99.90;;;;;;2101618;67;20212;-71
2022/03/02 10:45:51;;;;;;;27.02;20.00;;;7.00;99.90;;;;;;2097175;68;20696;-71
2022/03/02 10:49:11;;;;;;;30.25;21.33;;;7.10;99.90;;;;;;2097319;68;20223;-71
2022/03/02 10:51:57;;;;;;;32.30;20.15;;;7.30;99.90;;;;;;2092299;68;20198;-73
2022/03/02 10:54:44;;;;;;;28.00;18.90;;;7.40;99.90;;;;;;2090490;68;20337;-73
2022/03/02 10:57:26;;;;;;;32.80;20.02;;;7.50;99.90;;;;;;2089495;68;20288;-73
2022/03/02 11:00:17;;;;;;;31.38;20.08;;;7.70;99.90;;;;;;2084330;68;20223;-76
2022/03/02 11:02:59;;;;;;;28.42;19.30;;;8.00;99.90;;;;;;2089266;68;20303;-75
2022/03/02 11:05:41;;;;;;;28.63;18.88;;;8.30;99.90;;;;;;2084454;68;20964;-76
2022/03/02 11:08:24;;;;;;;28.73;19.90;;;8.40;99.90;;;;;;2090300;68;20226;-74
2022/03/02 11:11:10;;;;;;;30.23;18.92;;;8.70;99.90;;;;;;2088737;68;20504;-76
2022/03/02 11:13:56;;;;;;;26.60;18.85;;;9.10;99.90;;;;;;2091877;68;20242;-75
2022/03/02 11:16:43;;;;;;;27.60;19.25;;;9.40;99.90;;;;;;2084568;68;20221;-76
2022/03/02 11:19:29;;;;;;;28.67;19.35;;;9.90;99.90;;;;;;2098132;68;20223;-75
2022/03/02 11:22:20;;;;;;;26.27;16.83;;;10.30;99.90;;;;;;2096981;67;20242;-75
2022/03/02 11:25:06;;;;;;;29.63;19.35;;;10.80;99.90;;;;;;2107853;67;20705;-77
2022/03/02 11:27:49;;;;;;;26.88;18.20;;;11.30;99.90;;;;;;2104060;67;20687;-75
2022/03/02 11:30:32;;;;;;;21.92;17.60;;;11.70;99.90;;;;;;2093009;68;21444;-75
2022/03/02 11:33:16;;;;;;;26.65;18.15;;;12.10;99.90;;;;;;2082990;68;20361;-76
2022/03/02 11:36:13;;;;;;;21.60;16.63;;;12.60;99.90;;;;;;2103647;67;20182;-76
2022/03/02 11:39:02;;;;;;;22.13;16.27;;;13.10;99.90;;;;;;2090963;68;20547;-75
2022/03/02 11:41:45;;;;;;;21.15;15.85;;;13.50;99.90;;;;;;2098474;68;20187;-77
2022/03/02 11:44:26;;;;;;;20.02;15.35;;;14.00;99.00;;;;;;2088606;68;20707;-76
2022/03/02 11:47:13;;;;;;;21.00;15.90;;;14.30;93.60;;;;;;2076696;68;20711;-76
2022/03/02 11:49:57;;;;;;;21.80;16.25;;;14.80;87.20;;;;;;2071416;69;20716;-77
2022/03/02 11:52:49;;;;;;;20.95;16.15;;;15.00;83.30;;;;;;2074394;68;20690;-76
2022/03/02 11:55:33;;;;;;;21.63;16.63;;;15.40;79.40;;;;;;2074572;69;20185;-76
2022/03/02 11:58:19;;;;;;;19.17;16.67;;;15.70;75.90;;;;;;2074991;69;20297;-75
2022/03/02 12:01:07;;;;;;;20.17;16.95;;;15.80;74.70;;;;;;2082691;68;20196;-74
2022/03/02 12:03:56;;;;;;;21.13;15.98;;;16.30;73.40;;;;;;2084854;68;20672;-75
2022/03/02 12:06:41;;;;;;;17.92;14.85;;;16.80;69.90;;;;;;2089215;68;20486;-75
2022/03/02 12:09:36;;;;;;;18.85;15.85;;;17.10;66.10;;;;;;2085075;68;20674;-75
2022/03/02 12:12:21;;;;;;;18.90;16.45;;;17.40;66.30;;;;;;2097041;67;20216;-76
2022/03/02 12:15:15;;;;;;;20.00;16.30;;;17.80;61.80;;;;;;2116326;67;20400;-75
2022/03/02 12:18:09;;;;;;;20.23;16.52;;;18.10;59.80;;;;;;2131960;67;20674;-75
2022/03/02 12:21:18;;;;;;;19.40;16.58;;;18.50;58.30;;;;;;2122532;67;20454;-75
2022/03/02 12:24:01;;;;;;;18.77;16.02;;;18.60;56.40;;;;;;2135531;66;20216;-74
2022/03/02 12:26:49;;;;;;;19.25;16.25;;;19.00;55.10;;;;;;2139556;67;20179;-74
2022/03/02 12:29:26;;;;;;;18.85;16.60;;;19.30;54.00;;;;;;2151104;66;20640;-76
2022/03/02 12:32:16;;;;;;;18.95;15.77;;;19.70;52.70;;;;;;2171187;65;20349;-76
2022/03/02 12:35:13;;;;;;;16.67;14.88;;;19.90;53.40;;;;;;2173743;65;20202;-74
2022/03/02 12:37:54;;;;;;;17.83;15.93;;;20.00;51.60;;;;;;2177562;65;20421;-76
2022/03/02 12:40:39;;;;;;;21.73;17.23;;;20.30;50.30;;;;;;2188307;65;20230;-75
2022/03/02 12:43:20;;;;;;;19.05;15.80;;;20.60;49.30;;;;;;2187122;65;20377;-75
2022/03/02 12:46:02;;;;;;;19.30;16.02;;;21.00;48.50;;;;;;2182312;65;20186;-75
2022/03/02 12:48:57;;;;;;;18.65;16.63;;;21.30;47.40;;;;;;2169480;65;20754;-76
2022/03/02 12:51:46;;;;;;;18.75;16.75;;;21.60;47.30;;;;;;2171128;65;20172;-76
2022/03/02 12:54:26;;;;;;;21.38;16.58;;;21.70;46.60;;;;;;2190990;65;20691;-77
2022/03/02 12:57:20;;;;;;;20.08;17.00;;;21.80;45.40;;;;;;2190748;65;20291;-76
2022/03/02 12:59:58;;;;;;;18.63;16.58;;;22.00;45.20;;;;;;2191398;65;20177;-76
2022/03/02 13:02:44;;;;;;;17.90;16.10;;;22.10;45.20;;;;;;2182352;65;20171;-76
2022/03/02 13:05:44;;;;;;;21.20;18.65;;;22.40;44.00;;;;;;2170287;65;20253;-75
2022/03/02 13:08:39;;;;;;;20.20;17.23;;;22.80;44.50;;;;;;2153725;66;20408;-76
2022/03/02 13:11:25;;;;;;;19.10;17.05;;;23.00;44.10;;;;;;2143559;66;20328;-76
2022/03/02 13:14:47;;;;;;;22.27;17.33;;;23.20;44.40;;;;;;2135324;67;20667;-77
2022/03/02 13:17:32;;;;;;;21.65;18.27;;;23.60;43.90;;;;;;2118896;67;20200;-77
2022/03/02 13:20:20;;;;;;;19.45;17.38;;;23.90;43.00;;;;;;2118969;67;20609;-74
2022/03/02 13:23:15;;;;;;;18.95;16.90;;;24.10;42.50;;;;;;2117322;67;20428;-74
2022/03/02 13:25:59;;;;;;;19.63;17.33;;;24.30;42.40;;;;;;2111428;67;20412;-76
2022/03/02 13:29:04;;;;;;;20.25;18.15;;;24.60;41.70;;;;;;2118149;67;20252;-76
2022/03/02 13:32:05;;;;;;;20.02;17.98;;;24.90;40.40;;;;;;2112607;67;20380;-75
2022/03/02 13:35:06;;;;;;;19.60;17.10;;;25.00;41.70;;;;;;2110968;67;20259;-75
2022/03/02 13:38:00;;;;;;;20.05;17.92;;;25.10;40.60;;;;;;2113728;67;20227;-75
2022/03/02 13:40:54;;;;;;;19.90;17.63;;;25.10;39.90;;;;;;2125280;67;20233;-78
2022/03/02 13:43:41;;;;;;;20.27;17.95;;;24.90;39.80;;;;;;2110680;67;20304;-77
2022/03/02 13:46:39;;;;;;;20.48;17.63;;;24.70;40.00;;;;;;2111859;67;20646;-75
2022/03/02 13:49:28;;;;;;;20.63;17.42;;;24.70;39.70;;;;;;2119816;67;20167;-74
2022/03/02 13:52:05;;;;;;;18.65;16.65;;;24.70;39.90;;;;;;2138035;66;20158;-75
2022/03/02 13:54:41;;;;;;;19.67;17.58;;;24.50;40.50;;;;;;2164715;65;20223;-76
2022/03/02 13:57:21;;;;;;;20.20;17.35;;;24.50;40.80;;;;;;2174182;65;20427;-77
2022/03/02 14:00:19;;;;;;;19.23;17.20;;;24.40;39.80;;;;;;2168224;65;20180;-75
2022/03/02 14:02:56;;;;;;;18.83;16.92;;;24.20;39.80;;;;;;2168451;66;20298;-77
2022/03/02 14:05:44;;;;;;;20.17;17.58;;;23.80;40.20;;;;;;2168198;66;20224;-76
2022/03/02 14:08:23;;;;;;;19.75;17.67;;;23.60;40.20;;;;;;2167470;66;20312;-75
2022/03/02 14:11:01;;;;;;;21.67;17.70;;;23.40;40.40;;;;;;2178405;65;20195;-75
2022/03/02 14:13:44;;;;;;;19.45;17.38;;;23.30;40.60;;;;;;2190996;65;20259;-75
2022/03/02 14:16:19;;;;;;;18.35;16.27;;;23.20;40.10;;;;;;2188453;65;20399;-75
2022/03/02 14:19:13;;;;;;;20.73;16.65;;;23.00;39.90;;;;;;2182089;65;20166;-76
2022/03/02 14:22:04;;;;;;;21.05;18.45;;;22.80;40.50;;;;;;2183009;65;20166;-76
2022/03/02 14:24:48;;;;;;;20.95;17.45;;;22.50;40.60;;;;;;2167696;65;20227;-75
2022/03/02 14:27:30;;;;;;;19.50;17.17;;;22.20;40.90;;;;;;2153111;66;20312;-75
2022/03/02 14:30:12;;;;;;;21.60;17.63;;;21.90;41.70;;;;;;2139596;66;20794;-75
2022/03/02 14:32:55;;;;;;;20.77;17.85;;;21.80;42.10;;;;;;2132393;67;20333;-75
2022/03/02 14:35:42;;;;;;;20.30;17.73;;;21.70;42.00;;;;;;2125495;67;20423;-75
2022/03/02 14:38:30;;;;;;;22.25;17.98;;;21.90;42.40;;;;;;2116665;67;20265;-76
2022/03/02 14:41:24;;;;;;;19.15;17.08;;;22.10;42.10;;;;;;2118365;67;20242;-75